createdAt,value
2019-03-01T00:00:10.516Z,51.80
2019-03-01T00:01:25.717Z,51.80
2019-03-01T00:02:30.209Z,51.70
2019-03-01T00:03:35.933Z,51.50
2019-03-01T00:04:52.322Z,51.70
2019-03-01T00:06:18.662Z,51.90
2019-03-01T00:07:59.591Z,52.00
2019-03-01T00:09:25.218Z,51.50
2019-03-01T00:10:47.603Z,51.50
2019-03-01T00:12:11.592Z,51.50
2019-03-01T00:13:28.034Z,51.50
2019-03-01T00:14:38.695Z,51.60
2019-03-01T00:16:05.572Z,51.50
2019-03-01T00:17:24.930Z,51.70
2019-03-01T00:18:48.818Z,52.30
2019-03-01T00:19:56.374Z,51.70
2019-03-01T00:21:26.666Z,51.60
2019-03-01T00:22:45.664Z,51.80
2019-03-01T00:24:04.503Z,51.80
2019-03-01T00:25:26.802Z,51.70
2019-03-01T00:26:39.990Z,52.00
2019-03-01T00:27:56.778Z,52.20
2019-03-01T00:29:22.239Z,52.60
2019-03-01T00:30:47.847Z,52.20
2019-03-01T00:32:15.249Z,52.20
2019-03-01T00:33:48.244Z,52.20
2019-03-01T00:35:04.678Z,52.70
2019-03-01T00:36:17.788Z,52.00
2019-03-01T00:37:25.345Z,52.70
2019-03-01T00:38:51.300Z,52.80
2019-03-01T00:40:04.491Z,52.30
2019-03-01T00:41:12.084Z,53.00
2019-03-01T00:42:39.352Z,52.70
2019-03-01T00:44:05.043Z,52.60
2019-03-01T00:45:09.530Z,53.10
2019-03-01T00:46:13.996Z,53.50
2019-03-01T00:47:18.477Z,53.20
2019-03-01T00:48:22.968Z,53.10
2019-03-01T00:49:27.483Z,53.00
2019-03-01T00:50:31.979Z,52.90
2019-03-01T00:51:36.426Z,53.10
2019-03-01T00:52:40.890Z,53.20
2019-03-01T00:53:45.426Z,53.20
2019-03-01T00:54:49.924Z,53.30
2019-03-01T00:55:54.460Z,53.70
2019-03-01T00:56:58.935Z,53.70
2019-03-01T00:58:03.434Z,53.40
2019-03-01T00:59:07.897Z,53.70
2019-03-01T01:00:27.409Z,53.50
2019-03-01T01:01:32.583Z,53.30
2019-03-01T01:02:37.077Z,53.10
2019-03-01T01:03:41.568Z,53.20
2019-03-01T01:04:46.140Z,53.20
2019-03-01T01:05:50.689Z,53.10
2019-03-01T01:06:55.246Z,53.20
2019-03-01T01:07:59.753Z,53.10
2019-03-01T01:09:06.683Z,52.90
2019-03-01T01:10:11.185Z,53.10
2019-03-01T01:11:15.666Z,52.90
2019-03-01T01:12:20.222Z,52.80
2019-03-01T01:13:24.696Z,52.90
2019-03-01T01:14:29.158Z,52.80
2019-03-01T01:15:33.654Z,52.80
2019-03-01T01:16:38.113Z,52.70
2019-03-01T01:17:42.596Z,52.90
2019-03-01T01:18:47.062Z,53.00
2019-03-01T01:19:51.539Z,52.70
2019-03-01T01:20:56.037Z,52.90
2019-03-01T01:22:00.535Z,52.70
2019-03-01T01:23:05.570Z,52.90
2019-03-01T01:24:10.073Z,52.70
2019-03-01T01:25:14.553Z,52.80
2019-03-01T01:26:19.069Z,52.90
2019-03-01T01:27:23.816Z,52.90
2019-03-01T01:28:28.296Z,53.00
2019-03-01T01:29:32.788Z,52.80
2019-03-01T01:30:37.233Z,53.00
2019-03-01T01:31:41.771Z,52.80
2019-03-01T01:32:46.276Z,52.90
2019-03-01T01:33:50.742Z,52.70
2019-03-01T01:34:55.234Z,52.70
2019-03-01T01:35:59.707Z,53.10
2019-03-01T01:37:04.183Z,53.00
2019-03-01T01:38:08.693Z,53.00
2019-03-01T01:39:13.241Z,53.10
2019-03-01T01:40:17.706Z,52.80
2019-03-01T01:41:22.175Z,52.90
2019-03-01T01:42:26.663Z,52.90
2019-03-01T01:43:31.149Z,52.80
2019-03-01T01:44:35.623Z,53.30
2019-03-01T01:45:40.086Z,53.30
2019-03-01T01:46:44.572Z,53.20
2019-03-01T01:47:49.085Z,53.20
2019-03-01T01:48:53.588Z,53.60
2019-03-01T01:49:58.046Z,53.70
2019-03-01T01:51:02.524Z,53.70
2019-03-01T01:52:07.073Z,53.80
2019-03-01T01:53:11.538Z,53.70
2019-03-01T01:54:16.190Z,53.90
2019-03-01T01:55:20.647Z,53.70
2019-03-01T01:56:25.122Z,53.90
2019-03-01T01:57:29.591Z,54.20
2019-03-01T01:58:34.050Z,54.10
2019-03-01T01:59:38.544Z,53.90
2019-03-01T02:00:43.010Z,54.00
2019-03-01T02:01:47.556Z,54.10
2019-03-01T02:02:52.108Z,54.10
2019-03-01T02:03:56.612Z,54.50
2019-03-01T02:05:01.181Z,54.50
2019-03-01T02:06:05.708Z,54.30
2019-03-01T02:07:10.213Z,54.40
2019-03-01T02:08:14.723Z,54.50
2019-03-01T02:09:21.821Z,54.60
2019-03-01T02:10:26.367Z,54.50
2019-03-01T02:11:30.856Z,54.80
2019-03-01T02:12:35.452Z,54.60
2019-03-01T02:13:40.026Z,54.70
2019-03-01T02:14:44.497Z,54.40
2019-03-01T02:15:48.982Z,54.50
2019-03-01T02:16:53.508Z,54.50
2019-03-01T02:17:58.112Z,54.50
2019-03-01T02:19:02.590Z,54.30
2019-03-01T02:20:10.008Z,54.50
2019-03-01T02:21:17.185Z,54.50
2019-03-01T02:22:21.733Z,54.70
2019-03-01T02:23:26.278Z,54.50
2019-03-01T02:24:30.761Z,54.50
2019-03-01T02:25:35.220Z,54.80
2019-03-01T02:26:39.721Z,54.30
2019-03-01T02:27:44.216Z,54.60
2019-03-01T02:28:48.716Z,54.70
2019-03-01T02:29:53.402Z,54.60
2019-03-01T02:31:01.069Z,55.10
2019-03-01T02:32:05.591Z,54.80
2019-03-01T02:33:10.073Z,55.00
2019-03-01T02:34:14.548Z,54.90
2019-03-01T02:35:19.658Z,54.70
2019-03-01T02:36:24.128Z,54.90
2019-03-01T02:37:28.613Z,54.70
2019-03-01T02:38:33.139Z,54.70
2019-03-01T02:39:37.674Z,54.90
2019-03-01T02:40:42.483Z,55.00
2019-03-01T02:41:47.520Z,54.80
2019-03-01T02:42:52.071Z,55.00
2019-03-01T02:43:56.608Z,55.00
2019-03-01T02:45:01.221Z,54.60
2019-03-01T02:46:05.984Z,54.90
2019-03-01T02:47:10.522Z,55.00
2019-03-01T02:48:15.013Z,55.00
2019-03-01T02:49:20.692Z,55.50
2019-03-01T02:50:25.202Z,55.30
2019-03-01T02:51:29.696Z,55.00
2019-03-01T02:52:34.306Z,55.20
2019-03-01T02:53:38.813Z,55.30
2019-03-01T02:54:43.317Z,55.20
2019-03-01T02:55:47.786Z,55.00
2019-03-01T02:56:52.273Z,54.90
2019-03-01T02:57:56.873Z,55.00
2019-03-01T02:59:01.346Z,55.00
2019-03-01T03:00:09.293Z,55.00
2019-03-01T03:01:13.778Z,55.20
2019-03-01T03:02:18.257Z,55.30
2019-03-01T03:03:22.722Z,55.20
2019-03-01T03:04:27.242Z,55.10
2019-03-01T03:05:32.511Z,55.10
2019-03-01T03:06:38.631Z,55.00
2019-03-01T03:07:51.279Z,55.00
2019-03-01T03:08:55.748Z,55.10
2019-03-01T03:10:00.495Z,55.00
2019-03-01T03:11:05.125Z,55.20
2019-03-01T03:12:09.726Z,55.00
2019-03-01T03:13:14.204Z,55.00
2019-03-01T03:14:18.676Z,55.20
2019-03-01T03:15:24.884Z,55.50
2019-03-01T03:16:29.467Z,55.00
2019-03-01T03:17:33.998Z,55.00
2019-03-01T03:18:38.478Z,55.50
2019-03-01T03:19:42.986Z,55.00
2019-03-01T03:20:47.472Z,55.30
2019-03-01T03:21:52.021Z,55.30
2019-03-01T03:22:56.636Z,55.20
2019-03-01T03:24:01.107Z,55.00
2019-03-01T03:25:08.618Z,55.30
2019-03-01T03:26:13.187Z,55.10
2019-03-01T03:27:17.714Z,55.50
2019-03-01T03:28:22.189Z,55.90
2019-03-01T03:29:26.685Z,56.00
2019-03-01T03:30:31.201Z,56.20
2019-03-01T03:31:35.745Z,56.40
2019-03-01T03:32:40.251Z,56.70
2019-03-01T03:33:44.790Z,57.10
2019-03-01T03:34:49.296Z,57.20
2019-03-01T03:35:53.819Z,57.10
2019-03-01T03:36:58.370Z,57.00
2019-03-01T03:38:02.879Z,57.20
2019-03-01T03:39:10.626Z,57.50
2019-03-01T03:40:15.944Z,57.00
2019-03-01T03:41:20.478Z,57.50
2019-03-01T03:42:24.973Z,57.60
2019-03-01T03:43:29.443Z,57.40
2019-03-01T03:44:33.952Z,57.40
2019-03-01T03:45:38.504Z,57.90
2019-03-01T03:46:42.968Z,57.60
2019-03-01T03:47:47.754Z,57.60
2019-03-01T03:48:52.252Z,58.00
2019-03-01T03:49:56.726Z,58.00
2019-03-01T03:51:01.208Z,57.70
2019-03-01T03:52:05.713Z,58.30
2019-03-01T03:53:10.270Z,58.30
2019-03-01T03:54:14.757Z,58.00
2019-03-01T03:55:19.662Z,58.40
2019-03-01T03:56:24.191Z,58.70
2019-03-01T03:57:28.692Z,58.60
2019-03-01T03:58:33.196Z,58.50
2019-03-01T03:59:37.650Z,58.70
2019-03-01T04:00:42.122Z,59.20
2019-03-01T04:01:46.613Z,59.20
2019-03-01T04:02:51.197Z,59.60
2019-03-01T04:03:55.808Z,59.60
2019-03-01T04:05:00.445Z,60.60
2019-03-01T04:06:05.118Z,61.10
2019-03-01T04:07:09.586Z,60.90
2019-03-01T04:08:14.132Z,60.50
2019-03-01T04:09:18.613Z,61.90
2019-03-01T04:10:23.112Z,61.20
2019-03-01T04:11:27.599Z,61.90
2019-03-01T04:12:32.060Z,62.60
2019-03-01T04:13:36.545Z,62.10
2019-03-01T04:14:41.021Z,62.10
2019-03-01T04:15:45.515Z,62.90
2019-03-01T04:16:50.033Z,62.20
2019-03-01T04:17:54.670Z,62.80
2019-03-01T04:18:59.165Z,62.80
2019-03-01T04:20:05.232Z,63.80
2019-03-01T04:21:09.700Z,63.60
2019-03-01T04:22:14.201Z,62.90
2019-03-01T04:23:18.689Z,63.80
2019-03-01T04:24:23.171Z,63.50
2019-03-01T04:25:27.880Z,64.90
2019-03-01T04:26:32.411Z,64.30
2019-03-01T04:27:36.900Z,64.70
2019-03-01T04:28:41.376Z,64.90
2019-03-01T04:29:45.850Z,64.50
2019-03-01T04:30:50.397Z,65.10
2019-03-01T04:31:54.893Z,65.00
2019-03-01T04:32:59.405Z,65.60
2019-03-01T04:34:05.896Z,65.60
2019-03-01T04:35:10.526Z,66.40
2019-03-01T04:36:15.018Z,66.50
2019-03-01T04:37:19.505Z,65.60
2019-03-01T04:38:24.378Z,66.70
2019-03-01T04:39:28.874Z,66.20
2019-03-01T04:40:33.420Z,66.10
2019-03-01T04:41:38.001Z,66.40
2019-03-01T04:42:42.532Z,66.70
2019-03-01T04:43:47.047Z,66.30
2019-03-01T04:44:51.594Z,66.40
2019-03-01T04:45:56.063Z,66.60
2019-03-01T04:47:00.528Z,66.80
2019-03-01T04:48:04.994Z,66.90
2019-03-01T04:49:09.523Z,68.50
2019-03-01T04:50:14.273Z,67.20
2019-03-01T04:51:18.829Z,67.20
2019-03-01T04:52:31.171Z,67.70
2019-03-01T04:53:35.727Z,67.50
2019-03-01T04:54:40.224Z,67.50
2019-03-01T04:55:44.684Z,67.20
2019-03-01T04:56:49.178Z,67.00
2019-03-01T04:57:53.821Z,67.00
2019-03-01T04:58:58.313Z,67.20
2019-03-01T05:00:02.867Z,67.00
2019-03-01T05:01:07.352Z,67.00
2019-03-01T05:02:11.838Z,67.00
2019-03-01T05:03:16.310Z,67.30
2019-03-01T05:04:20.802Z,67.70
2019-03-01T05:05:25.291Z,67.30
2019-03-01T05:06:29.773Z,67.80
2019-03-01T05:07:34.249Z,67.30
2019-03-01T05:08:38.713Z,67.60
2019-03-01T05:09:43.197Z,67.00
2019-03-01T05:10:47.717Z,67.10
2019-03-01T05:11:52.277Z,67.10
2019-03-01T05:12:56.845Z,66.90
2019-03-01T05:14:01.302Z,66.60
2019-03-01T05:15:09.245Z,67.10
2019-03-01T05:16:13.744Z,66.80
2019-03-01T05:17:18.204Z,66.90
2019-03-01T05:18:22.691Z,66.80
2019-03-01T05:19:28.807Z,66.70
2019-03-01T05:20:33.300Z,66.80
2019-03-01T05:21:37.774Z,67.10
2019-03-01T05:22:42.336Z,66.70
2019-03-01T05:23:46.824Z,66.70
2019-03-01T05:24:51.339Z,66.80
2019-03-01T05:25:55.866Z,66.80
2019-03-01T05:27:00.382Z,66.80
2019-03-01T05:28:04.919Z,67.20
2019-03-01T05:29:09.392Z,67.40
2019-03-01T05:30:16.521Z,66.60
2019-03-01T05:31:21.135Z,66.50
2019-03-01T05:32:25.643Z,66.70
2019-03-01T05:33:30.094Z,66.80
2019-03-01T05:34:34.572Z,66.70
2019-03-01T05:35:39.431Z,66.60
2019-03-01T05:36:43.894Z,66.80
2019-03-01T05:37:48.409Z,67.00
2019-03-01T05:38:54.466Z,67.50
2019-03-01T05:39:58.934Z,66.80
2019-03-01T05:41:03.399Z,66.90
2019-03-01T05:42:07.857Z,66.70
2019-03-01T05:43:12.358Z,66.80
2019-03-01T05:44:16.817Z,66.80
2019-03-01T05:45:26.824Z,66.60
2019-03-01T05:46:31.315Z,67.70
2019-03-01T05:47:35.791Z,67.20
2019-03-01T05:48:40.278Z,67.10
2019-03-01T05:49:44.840Z,67.90
2019-03-01T05:50:49.303Z,67.40
2019-03-01T05:51:53.839Z,68.20
2019-03-01T05:52:58.343Z,68.60
2019-03-01T05:54:02.816Z,68.50
2019-03-01T05:55:08.825Z,68.20
2019-03-01T05:56:13.310Z,69.00
2019-03-01T05:57:17.772Z,69.20
2019-03-01T05:58:27.719Z,69.00
2019-03-01T05:59:32.279Z,69.70
2019-03-01T06:00:36.846Z,69.00
2019-03-01T06:01:47.104Z,69.20
2019-03-01T06:03:09.883Z,68.80
2019-03-01T06:04:23.409Z,69.00
2019-03-01T06:05:27.909Z,69.50
2019-03-01T06:06:50.747Z,70.00
2019-03-01T06:08:01.538Z,70.30
2019-03-01T06:09:42.275Z,69.80
2019-03-01T06:10:50.784Z,70.30
2019-03-01T06:12:31.655Z,70.50
2019-03-01T06:13:51.232Z,70.30
2019-03-01T06:15:18.105Z,70.40
2019-03-01T06:16:43.398Z,70.90
2019-03-01T06:18:15.445Z,70.50
2019-03-01T06:19:28.223Z,70.80
2019-03-01T06:21:03.048Z,70.60
2019-03-01T06:22:25.298Z,70.90
2019-03-01T06:23:49.771Z,70.70
2019-03-01T06:25:14.121Z,70.90
2019-03-01T06:26:38.054Z,71.30
2019-03-01T06:28:09.600Z,72.20
2019-03-01T06:29:22.445Z,71.20
2019-03-01T06:30:51.682Z,71.80
2019-03-01T06:32:03.086Z,71.10
2019-03-01T06:33:10.685Z,71.60
2019-03-01T06:34:33.208Z,72.10
2019-03-01T06:36:11.027Z,72.20
2019-03-01T06:37:21.240Z,73.40
2019-03-01T06:38:51.058Z,73.40
2019-03-01T06:40:46.258Z,72.50
2019-03-01T06:42:10.518Z,72.50
2019-03-01T06:43:40.980Z,72.10
2019-03-01T06:45:17.551Z,72.80
2019-03-01T06:46:27.791Z,72.40
2019-03-01T06:47:43.349Z,72.60
2019-03-01T06:48:55.462Z,72.80
2019-03-01T06:50:04.279Z,72.60
2019-03-01T06:51:10.403Z,72.50
2019-03-01T06:52:17.651Z,73.40
2019-03-01T06:53:22.198Z,72.60
2019-03-01T06:54:26.683Z,72.90
2019-03-01T06:55:34.575Z,72.60
2019-03-01T06:56:39.154Z,73.60
2019-03-01T06:57:43.643Z,72.90
2019-03-01T06:58:48.163Z,73.10
2019-03-01T06:59:52.715Z,73.00
2019-03-01T07:01:00.024Z,73.00
2019-03-01T07:02:04.571Z,72.60
2019-03-01T07:03:09.189Z,72.90
2019-03-01T07:04:14.389Z,72.40
2019-03-01T07:05:20.107Z,72.50
2019-03-01T07:06:24.583Z,72.70
2019-03-01T07:07:29.047Z,73.10
2019-03-01T07:08:33.567Z,73.50
2019-03-01T07:09:38.019Z,72.50
2019-03-01T07:10:42.500Z,72.60
2019-03-01T07:11:46.987Z,72.20
2019-03-01T07:12:51.527Z,72.30
2019-03-01T07:13:56.092Z,72.60
2019-03-01T07:15:00.586Z,72.60
2019-03-01T07:16:05.186Z,72.70
2019-03-01T07:17:09.681Z,72.30
2019-03-01T07:18:14.218Z,71.90
2019-03-01T07:19:18.821Z,72.10
2019-03-01T07:20:23.300Z,71.90
2019-03-01T07:21:27.856Z,71.90
2019-03-01T07:22:32.399Z,72.20
2019-03-01T07:23:37.253Z,72.00
2019-03-01T07:24:42.057Z,71.70
2019-03-01T07:25:46.871Z,71.50
2019-03-01T07:26:51.377Z,71.50
2019-03-01T07:27:56.830Z,71.50
2019-03-01T07:29:01.324Z,71.30
2019-03-01T07:30:10.587Z,71.50
2019-03-01T07:31:15.136Z,71.70
2019-03-01T07:32:19.620Z,71.30
2019-03-01T07:33:24.086Z,71.60
2019-03-01T07:34:28.570Z,71.30
2019-03-01T07:35:33.230Z,71.20
2019-03-01T07:36:37.755Z,71.50
2019-03-01T07:37:42.852Z,71.60
2019-03-01T07:38:47.351Z,71.50
2019-03-01T07:39:51.812Z,72.10
2019-03-01T07:40:56.300Z,72.20
2019-03-01T07:42:00.851Z,71.40
2019-03-01T07:43:05.325Z,71.60
2019-03-01T07:44:09.830Z,72.00
2019-03-01T07:45:15.109Z,71.60
2019-03-01T07:46:19.604Z,72.10
2019-03-01T07:47:24.092Z,71.60
2019-03-01T07:48:28.665Z,71.60
2019-03-01T07:49:33.221Z,72.30
2019-03-01T07:50:37.732Z,72.60
2019-03-01T07:51:42.372Z,72.10
2019-03-01T07:52:46.851Z,71.90
2019-03-01T07:53:51.357Z,71.90
2019-03-01T07:54:55.948Z,72.40
2019-03-01T07:56:00.769Z,72.00
2019-03-01T07:57:06.680Z,72.70
2019-03-01T07:58:11.183Z,73.10
2019-03-01T07:59:15.662Z,73.10
2019-03-01T08:00:20.211Z,73.00
2019-03-01T08:01:25.764Z,72.90
2019-03-01T08:02:30.872Z,73.60
2019-03-01T08:03:35.370Z,73.10
2019-03-01T08:04:40.203Z,73.40
2019-03-01T08:05:44.712Z,73.50
2019-03-01T08:06:49.669Z,73.90
2019-03-01T08:07:56.252Z,73.50
2019-03-01T08:09:00.440Z,74.00
2019-03-01T08:10:08.307Z,74.00
2019-03-01T08:11:13.345Z,73.90
2019-03-01T08:12:17.872Z,74.60
2019-03-01T08:13:22.439Z,74.30
2019-03-01T08:14:27.956Z,74.30
2019-03-01T08:15:33.191Z,75.30
2019-03-01T08:16:37.645Z,74.50
2019-03-01T08:17:42.147Z,75.00
2019-03-01T08:18:46.670Z,75.20
2019-03-01T08:19:51.147Z,75.30
2019-03-01T08:20:55.687Z,74.80
2019-03-01T08:22:00.164Z,75.30
2019-03-01T08:23:04.737Z,75.80
2019-03-01T08:24:11.097Z,75.80
2019-03-01T08:25:22.583Z,75.90
2019-03-01T08:26:21.740Z,75.50
2019-03-01T08:27:26.246Z,75.60
2019-03-01T08:28:30.737Z,75.50
2019-03-01T08:29:35.310Z,76.00
2019-03-01T08:30:42.533Z,76.20
2019-03-01T08:31:46.096Z,76.20
2019-03-01T08:32:50.583Z,75.90
2019-03-01T08:33:55.076Z,76.00
2019-03-01T08:34:59.564Z,75.90
2019-03-01T08:36:05.817Z,76.20
2019-03-01T08:37:10.355Z,76.60
2019-03-01T08:38:14.882Z,76.10
2019-03-01T08:39:19.465Z,76.60
2019-03-01T08:40:24.043Z,76.80
2019-03-01T08:41:30.115Z,76.90
2019-03-01T08:42:36.370Z,76.50
2019-03-01T08:43:41.106Z,76.70
2019-03-01T08:44:45.586Z,76.60
2019-03-01T08:45:50.076Z,76.80
2019-03-01T08:46:54.554Z,76.90
2019-03-01T08:47:59.717Z,76.80
2019-03-01T08:49:06.661Z,76.80
2019-03-01T08:50:13.014Z,76.50
2019-03-01T08:51:17.488Z,76.70
2019-03-01T08:52:21.991Z,76.70
2019-03-01T08:53:26.479Z,77.20
2019-03-01T08:54:31.177Z,77.50
2019-03-01T08:55:38.931Z,78.90
2019-03-01T08:56:42.338Z,77.40
2019-03-01T08:57:46.884Z,77.40
2019-03-01T08:58:51.344Z,77.80
2019-03-01T08:59:56.534Z,77.50
2019-03-01T09:01:07.378Z,77.50
2019-03-01T09:02:11.839Z,77.90
2019-03-01T09:03:27.981Z,77.80
2019-03-01T09:04:37.763Z,77.80
2019-03-01T09:05:39.039Z,78.70
2019-03-01T09:06:43.520Z,78.70
2019-03-01T09:07:47.996Z,77.80
2019-03-01T09:08:52.461Z,77.90
2019-03-01T09:09:57.931Z,78.30
2019-03-01T09:11:05.665Z,77.90
2019-03-01T09:12:09.040Z,79.30
2019-03-01T09:13:13.743Z,78.70
2019-03-01T09:14:18.302Z,78.20
2019-03-01T09:15:22.776Z,78.40
2019-03-01T09:16:27.243Z,78.50
2019-03-01T09:17:31.813Z,78.60
2019-03-01T09:18:36.450Z,79.20
2019-03-01T09:19:40.945Z,79.90
2019-03-01T09:20:45.417Z,78.90
2019-03-01T09:21:51.079Z,78.90
2019-03-01T09:22:55.644Z,79.20
2019-03-01T09:24:00.217Z,79.00
2019-03-01T09:25:08.767Z,79.10
2019-03-01T09:26:12.847Z,79.60
2019-03-01T09:27:17.371Z,79.00
2019-03-01T09:28:22.030Z,79.50
2019-03-01T09:29:26.527Z,80.10
2019-03-01T09:30:31.149Z,79.60
2019-03-01T09:31:37.254Z,79.70
2019-03-01T09:32:41.740Z,79.80
2019-03-01T09:33:47.089Z,79.60
2019-03-01T09:34:53.273Z,79.70
2019-03-01T09:36:18.003Z,80.00
2019-03-01T09:37:22.145Z,79.90
2019-03-01T09:38:26.656Z,79.70
2019-03-01T09:39:32.700Z,79.90
2019-03-01T09:40:37.440Z,79.90
2019-03-01T09:41:42.068Z,79.50
2019-03-01T09:42:47.415Z,80.20
2019-03-01T09:43:52.748Z,79.90
2019-03-01T09:44:57.251Z,79.90
2019-03-01T09:46:01.944Z,79.80
2019-03-01T09:47:06.618Z,80.00
2019-03-01T09:48:12.136Z,79.50
2019-03-01T09:49:17.309Z,79.70
2019-03-01T09:50:21.808Z,79.50
2019-03-01T09:51:26.455Z,79.40
2019-03-01T09:52:31.231Z,79.50
2019-03-01T09:53:35.703Z,79.40
2019-03-01T09:54:40.178Z,79.20
2019-03-01T09:55:44.695Z,79.30
2019-03-01T09:56:49.244Z,79.60
2019-03-01T09:57:53.755Z,79.60
2019-03-01T09:58:58.311Z,79.60
2019-03-01T10:00:03.204Z,79.00
2019-03-01T10:01:10.722Z,79.40
2019-03-01T10:02:15.225Z,79.70
2019-03-01T10:03:19.739Z,79.20
2019-03-01T10:04:24.355Z,79.30
2019-03-01T10:05:29.266Z,79.00
2019-03-01T10:06:38.023Z,79.10
2019-03-01T10:07:40.260Z,79.10
2019-03-01T10:08:44.752Z,79.40
2019-03-01T10:09:49.226Z,79.20
2019-03-01T10:10:53.780Z,78.80
2019-03-01T10:11:58.294Z,79.00
2019-03-01T10:13:03.023Z,78.80
2019-03-01T10:14:07.587Z,78.80
2019-03-01T10:15:13.131Z,79.00
2019-03-01T10:16:17.709Z,79.00
2019-03-01T10:17:22.172Z,78.50
2019-03-01T10:18:26.677Z,78.80
2019-03-01T10:19:31.214Z,78.70
2019-03-01T10:20:35.786Z,78.50
2019-03-01T10:21:40.308Z,78.70
2019-03-01T10:22:44.789Z,78.40
2019-03-01T10:23:49.337Z,78.70
2019-03-01T10:24:53.888Z,78.80
2019-03-01T10:25:58.474Z,78.90
2019-03-01T10:27:03.102Z,78.50
2019-03-01T10:28:07.693Z,78.80
2019-03-01T10:29:12.191Z,79.30
2019-03-01T10:30:18.298Z,79.10
2019-03-01T10:31:22.855Z,78.50
2019-03-01T10:32:27.374Z,78.70
2019-03-01T10:33:31.850Z,78.40
2019-03-01T10:34:36.426Z,78.40
2019-03-01T10:35:41.081Z,78.60
2019-03-01T10:36:45.562Z,78.60
2019-03-01T10:37:50.120Z,78.30
2019-03-01T10:38:54.614Z,78.80
2019-03-01T10:39:59.145Z,78.50
2019-03-01T10:41:03.641Z,78.70
2019-03-01T10:42:08.137Z,78.60
2019-03-01T10:43:12.626Z,79.00
2019-03-01T10:44:17.154Z,78.70
2019-03-01T10:45:24.100Z,78.60
2019-03-01T10:46:28.582Z,79.00
2019-03-01T10:47:33.035Z,78.70
2019-03-01T10:48:37.518Z,78.60
2019-03-01T10:49:42.050Z,79.20
2019-03-01T10:50:46.557Z,78.80
2019-03-01T10:51:51.139Z,78.70
2019-03-01T10:52:55.612Z,78.60
2019-03-01T10:54:00.077Z,78.40
2019-03-01T10:55:07.495Z,78.60
2019-03-01T10:56:11.980Z,78.60
2019-03-01T10:57:16.450Z,78.60
2019-03-01T10:58:20.947Z,78.50
2019-03-01T10:59:25.525Z,78.50
2019-03-01T11:00:31.136Z,78.60
2019-03-01T11:01:35.703Z,78.40
2019-03-01T11:02:40.233Z,78.10
2019-03-01T11:03:44.759Z,78.00
2019-03-01T11:04:49.400Z,77.80
2019-03-01T11:05:54.392Z,77.70
2019-03-01T11:06:59.045Z,77.90
2019-03-01T11:08:03.609Z,77.90
2019-03-01T11:09:08.593Z,77.70
2019-03-01T11:10:15.974Z,77.80
2019-03-01T11:11:20.465Z,77.50
2019-03-01T11:12:25.023Z,77.70
2019-03-01T11:13:29.515Z,77.50
2019-03-01T11:14:34.021Z,77.70
2019-03-01T11:15:38.620Z,77.70
2019-03-01T11:16:43.104Z,77.60
2019-03-01T11:17:47.686Z,77.50
2019-03-01T11:18:52.204Z,77.50
2019-03-01T11:19:56.740Z,77.50
2019-03-01T11:21:01.238Z,77.90
2019-03-01T11:22:05.840Z,78.20
2019-03-01T11:23:10.424Z,78.00
2019-03-01T11:24:15.319Z,78.10
2019-03-01T11:25:26.440Z,78.00
2019-03-01T11:26:30.916Z,78.20
2019-03-01T11:27:35.644Z,78.20
2019-03-01T11:28:40.318Z,78.10
2019-03-01T11:29:44.831Z,78.40
2019-03-01T11:30:49.309Z,78.40
2019-03-01T11:31:53.852Z,78.40
2019-03-01T11:32:58.393Z,78.50
2019-03-01T11:34:03.133Z,78.50
2019-03-01T11:35:07.948Z,78.90
2019-03-01T11:36:12.705Z,78.70
2019-03-01T11:37:17.194Z,78.70
2019-03-01T11:38:21.669Z,78.40
2019-03-01T11:39:26.352Z,78.30
2019-03-01T11:40:32.846Z,78.40
2019-03-01T11:41:37.441Z,78.20
2019-03-01T11:42:41.977Z,78.20
2019-03-01T11:43:46.463Z,78.20
2019-03-01T11:44:50.981Z,78.40
2019-03-01T11:45:55.503Z,78.20
2019-03-01T11:47:00.032Z,78.10
2019-03-01T11:48:05.625Z,78.20
2019-03-01T11:49:10.352Z,78.80
2019-03-01T11:50:20.169Z,78.50
2019-03-01T11:51:24.895Z,78.40
2019-03-01T11:52:29.350Z,78.60
2019-03-01T11:53:33.822Z,78.60
2019-03-01T11:54:38.299Z,79.00
2019-03-01T11:55:42.866Z,79.00
2019-03-01T11:56:47.336Z,79.50
2019-03-01T11:57:51.839Z,79.20
2019-03-01T11:58:57.369Z,78.60
2019-03-01T12:00:03.041Z,78.40
2019-03-01T12:01:16.692Z,78.30
2019-03-01T12:02:13.714Z,78.70
2019-03-01T12:03:18.271Z,78.60
2019-03-01T12:04:22.762Z,78.00
2019-03-01T12:05:27.422Z,78.50
2019-03-01T12:06:32.006Z,78.30
2019-03-01T12:07:36.568Z,77.90
2019-03-01T12:08:41.036Z,78.10
2019-03-01T12:09:45.507Z,77.90
2019-03-01T12:10:50.059Z,77.80
2019-03-01T12:11:54.649Z,77.40
2019-03-01T12:12:59.246Z,77.60
2019-03-01T12:14:03.782Z,77.90
2019-03-01T12:15:10.413Z,77.90
2019-03-01T12:16:14.909Z,78.10
2019-03-01T12:17:19.412Z,78.30
2019-03-01T12:18:23.904Z,78.70
2019-03-01T12:19:28.392Z,78.60
2019-03-01T12:20:33.433Z,78.80
2019-03-01T12:21:37.914Z,78.60
2019-03-01T12:22:43.443Z,78.40
2019-03-01T12:23:48.022Z,78.20
2019-03-01T12:24:52.507Z,78.00
2019-03-01T12:25:57.105Z,78.00
2019-03-01T12:27:01.579Z,77.80
2019-03-01T12:28:06.090Z,77.90
2019-03-01T12:29:10.662Z,77.90
2019-03-01T12:30:20.599Z,77.90
2019-03-01T12:31:25.218Z,78.00
2019-03-01T12:32:29.783Z,77.90
2019-03-01T12:33:34.293Z,77.60
2019-03-01T12:34:38.774Z,77.70
2019-03-01T12:35:43.842Z,77.80
2019-03-01T12:36:48.370Z,77.80
2019-03-01T12:37:52.968Z,77.70
2019-03-01T12:38:57.445Z,77.60
2019-03-01T12:40:01.912Z,77.80
2019-03-01T12:41:06.475Z,77.60
2019-03-01T12:42:10.944Z,77.60
2019-03-01T12:43:15.435Z,77.60
2019-03-01T12:44:19.902Z,77.60
2019-03-01T12:45:24.474Z,77.50
2019-03-01T12:46:29.012Z,77.30
2019-03-01T12:47:33.500Z,77.50
2019-03-01T12:48:37.996Z,77.30
2019-03-01T12:49:42.466Z,77.20
2019-03-01T12:50:47.018Z,77.40
2019-03-01T12:51:51.626Z,77.60
2019-03-01T12:52:56.164Z,77.30
2019-03-01T12:54:00.978Z,78.30
2019-03-01T12:55:08.170Z,77.40
2019-03-01T12:56:12.645Z,77.60
2019-03-01T12:57:17.258Z,77.50
2019-03-01T12:58:21.718Z,77.80
2019-03-01T12:59:26.220Z,77.40
2019-03-01T13:00:32.830Z,77.20
2019-03-01T13:01:37.309Z,77.40
2019-03-01T13:02:41.872Z,77.20
2019-03-01T13:03:46.396Z,77.00
2019-03-01T13:04:53.347Z,77.10
2019-03-01T13:05:57.397Z,76.90
2019-03-01T13:07:01.933Z,76.80
2019-03-01T13:08:06.534Z,77.00
2019-03-01T13:09:13.741Z,76.80
2019-03-01T13:10:20.825Z,77.00
2019-03-01T13:11:25.305Z,77.00
2019-03-01T13:12:30.974Z,77.00
2019-03-01T13:13:38.426Z,77.00
2019-03-01T13:14:41.928Z,76.90
2019-03-01T13:15:49.535Z,76.80
2019-03-01T13:16:52.993Z,77.00
2019-03-01T13:17:57.566Z,76.80
2019-03-01T13:19:02.042Z,76.70
2019-03-01T13:20:18.999Z,76.70
2019-03-01T13:21:23.494Z,76.90
2019-03-01T13:22:28.659Z,76.90
2019-03-01T13:23:33.238Z,77.00
2019-03-01T13:24:37.714Z,77.20
2019-03-01T13:25:44.159Z,77.00
2019-03-01T13:26:48.419Z,77.00
2019-03-01T13:27:53.727Z,77.00
2019-03-01T13:28:58.283Z,77.00
2019-03-01T13:30:03.116Z,76.80
2019-03-01T13:31:08.158Z,76.60
2019-03-01T13:32:13.867Z,76.50
2019-03-01T13:33:18.383Z,76.40
2019-03-01T13:34:22.874Z,76.30
2019-03-01T13:35:27.603Z,76.20
2019-03-01T13:36:32.245Z,76.10
2019-03-01T13:37:36.779Z,76.10
2019-03-01T13:38:41.307Z,76.00
2019-03-01T13:39:48.650Z,75.90
2019-03-01T13:40:51.970Z,75.80
2019-03-01T13:41:56.619Z,75.80
2019-03-01T13:43:01.089Z,75.70
2019-03-01T13:44:05.615Z,75.60
2019-03-01T13:45:15.012Z,75.50
2019-03-01T13:46:20.140Z,75.40
2019-03-01T13:47:24.621Z,75.40
2019-03-01T13:48:29.105Z,75.10
2019-03-01T13:49:33.604Z,75.10
2019-03-01T13:50:41.209Z,75.00
2019-03-01T13:51:44.363Z,75.10
2019-03-01T13:52:50.204Z,74.80
2019-03-01T13:53:54.862Z,74.70
2019-03-01T13:54:59.457Z,74.60
2019-03-01T13:56:04.003Z,74.70
2019-03-01T13:57:11.425Z,74.70
2019-03-01T13:58:15.011Z,74.70
2019-03-01T13:59:19.661Z,74.60
2019-03-01T14:00:24.274Z,74.60
2019-03-01T14:01:28.971Z,74.60
2019-03-01T14:02:33.471Z,74.40
2019-03-01T14:03:38.020Z,74.40
2019-03-01T14:04:42.552Z,74.40
2019-03-01T14:05:47.127Z,74.30
2019-03-01T14:06:51.623Z,74.20
2019-03-01T14:07:56.955Z,74.20
2019-03-01T14:09:01.927Z,74.20
2019-03-01T14:10:11.958Z,75.00
2019-03-01T14:11:20.853Z,74.10
2019-03-01T14:12:23.348Z,74.20
2019-03-01T14:13:29.299Z,74.20
2019-03-01T14:14:33.950Z,74.20